sensor_id;sensor_type;location;lat;lon;timestamp;P1;durP1;ratioP1;P2;durP2;ratioP2
12171;SDS011;6149;52.418;13.668;2023-05-10T00:01:46;7.07;;;5.87;;
12171;SDS011;6149;52.418;13.668;2023-05-10T00:04:15;6.60;;;5.90;;
12171;SDS011;6149;52.418;13.668;2023-05-10T00:06:43;7.40;;;6.60;;
12171;SDS011;6149;52.418;13.668;2023-05-10T00:09:12;6.57;;;5.70;;
12171;SDS011;6149;52.418;13.668;2023-05-10T00:11:40;7.60;;;6.17;;
12171;SDS011;6149;52.418;13.668;2023-05-10T00:14:07;7.73;;;5.87;;
12171;SDS011;6149;52.418;13.668;2023-05-10T00:16:33;7.60;;;5.90;;
12171;SDS011;6149;52.418;13.668;2023-05-10T00:19:01;8.33;;;5.83;;
12171;SDS011;6149;52.418;13.668;2023-05-10T00:21:28;8.53;;;5.90;;
12171;SDS011;6149;52.418;13.668;2023-05-10T00:23:55;7.83;;;6.27;;
12171;SDS011;6149;52.418;13.668;2023-05-10T00:26:21;7.40;;;6.40;;
12171;SDS011;6149;52.418;13.668;2023-05-10T00:28:48;7.43;;;6.63;;
12171;SDS011;6149;52.418;13.668;2023-05-10T00:31:15;7.53;;;6.23;;
12171;SDS011;6149;52.418;13.668;2023-05-10T00:33:43;7.23;;;6.10;;
12171;SDS011;6149;52.418;13.668;2023-05-10T00:36:12;7.10;;;6.40;;
12171;SDS011;6149;52.418;13.668;2023-05-10T00:38:49;7.03;;;6.23;;
12171;SDS011;6149;52.418;13.668;2023-05-10T00:41:17;7.07;;;6.03;;
12171;SDS011;6149;52.418;13.668;2023-05-10T00:43:48;7.17;;;6.00;;
12171;SDS011;6149;52.418;13.668;2023-05-10T00:46:16;6.60;;;5.87;;
12171;SDS011;6149;52.418;13.668;2023-05-10T00:48:46;6.53;;;5.87;;
12171;SDS011;6149;52.418;13.668;2023-05-10T00:51:15;7.20;;;6.20;;
12171;SDS011;6149;52.418;13.668;2023-05-10T00:53:43;8.30;;;5.70;;
12171;SDS011;6149;52.418;13.668;2023-05-10T00:56:13;6.30;;;5.70;;
12171;SDS011;6149;52.418;13.668;2023-05-10T00:58:42;7.40;;;6.00;;
12171;SDS011;6149;52.418;13.668;2023-05-10T01:01:10;7.63;;;5.87;;
12171;SDS011;6149;52.418;13.668;2023-05-10T01:03:40;6.70;;;5.67;;
12171;SDS011;6149;52.418;13.668;2023-05-10T01:06:07;8.27;;;6.37;;
12171;SDS011;6149;52.418;13.668;2023-05-10T01:08:37;6.43;;;5.70;;
12171;SDS011;6149;52.418;13.668;2023-05-10T01:11:04;7.83;;;5.73;;
12171;SDS011;6149;52.418;13.668;2023-05-10T01:13:33;8.03;;;5.67;;
12171;SDS011;6149;52.418;13.668;2023-05-10T01:16:03;9.00;;;6.27;;
12171;SDS011;6149;52.418;13.668;2023-05-10T01:18:32;9.07;;;6.47;;
12171;SDS011;6149;52.418;13.668;2023-05-10T01:21:04;7.83;;;6.37;;
12171;SDS011;6149;52.418;13.668;2023-05-10T01:23:57;6.80;;;5.60;;
12171;SDS011;6149;52.418;13.668;2023-05-10T01:27:09;9.97;;;6.23;;
12171;SDS011;6149;52.418;13.668;2023-05-10T01:33:37;8.63;;;6.67;;
12171;SDS011;6149;52.418;13.668;2023-05-10T01:36:15;7.57;;;6.50;;
12171;SDS011;6149;52.418;13.668;2023-05-10T01:38:53;7.97;;;5.70;;
12171;SDS011;6149;52.418;13.668;2023-05-10T01:41:28;6.60;;;5.90;;
12171;SDS011;6149;52.418;13.668;2023-05-10T01:44:05;7.10;;;5.80;;
12171;SDS011;6149;52.418;13.668;2023-05-10T01:46:48;7.87;;;6.33;;
12171;SDS011;6149;52.418;13.668;2023-05-10T01:49:26;7.80;;;6.17;;
12171;SDS011;6149;52.418;13.668;2023-05-10T01:51:59;7.67;;;5.90;;
12171;SDS011;6149;52.418;13.668;2023-05-10T01:54:33;7.67;;;6.47;;
12171;SDS011;6149;52.418;13.668;2023-05-10T01:57:02;8.30;;;6.03;;
12171;SDS011;6149;52.418;13.668;2023-05-10T01:59:33;8.57;;;6.40;;
12171;SDS011;6149;52.418;13.668;2023-05-10T02:02:06;6.87;;;5.93;;
12171;SDS011;6149;52.418;13.668;2023-05-10T02:04:38;9.00;;;6.57;;
12171;SDS011;6149;52.418;13.668;2023-05-10T02:07:06;8.43;;;6.17;;
12171;SDS011;6149;52.418;13.668;2023-05-10T02:09:36;6.83;;;5.87;;
12171;SDS011;6149;52.418;13.668;2023-05-10T02:12:04;6.87;;;5.83;;
12171;SDS011;6149;52.418;13.668;2023-05-10T02:14:35;7.27;;;6.37;;
12171;SDS011;6149;52.418;13.668;2023-05-10T02:17:06;11.17;;;6.27;;
12171;SDS011;6149;52.418;13.668;2023-05-10T02:19:41;7.00;;;5.80;;
12171;SDS011;6149;52.418;13.668;2023-05-10T02:22:11;6.67;;;5.97;;
12171;SDS011;6149;52.418;13.668;2023-05-10T02:24:40;6.83;;;5.70;;
12171;SDS011;6149;52.418;13.668;2023-05-10T02:27:12;7.80;;;6.23;;
12171;SDS011;6149;52.418;13.668;2023-05-10T02:29:41;7.13;;;5.73;;
12171;SDS011;6149;52.418;13.668;2023-05-10T02:32:10;8.70;;;6.50;;
12171;SDS011;6149;52.418;13.668;2023-05-10T02:34:42;9.23;;;6.40;;
12171;SDS011;6149;52.418;13.668;2023-05-10T02:37:18;9.20;;;6.20;;
12171;SDS011;6149;52.418;13.668;2023-05-10T02:39:47;8.70;;;6.10;;
12171;SDS011;6149;52.418;13.668;2023-05-10T02:42:16;9.97;;;6.13;;
12171;SDS011;6149;52.418;13.668;2023-05-10T02:44:47;8.27;;;6.10;;
12171;SDS011;6149;52.418;13.668;2023-05-10T02:47:18;9.87;;;6.10;;
12171;SDS011;6149;52.418;13.668;2023-05-10T02:49:48;12.27;;;6.20;;
12171;SDS011;6149;52.418;13.668;2023-05-10T02:52:16;8.00;;;5.83;;
12171;SDS011;6149;52.418;13.668;2023-05-10T02:54:52;8.33;;;5.90;;
12171;SDS011;6149;52.418;13.668;2023-05-10T02:57:22;10.30;;;6.73;;
12171;SDS011;6149;52.418;13.668;2023-05-10T02:59:53;8.07;;;6.57;;
12171;SDS011;6149;52.418;13.668;2023-05-10T03:02:20;11.13;;;6.10;;
12171;SDS011;6149;52.418;13.668;2023-05-10T03:04:49;7.57;;;5.47;;
12171;SDS011;6149;52.418;13.668;2023-05-10T03:07:19;6.87;;;5.87;;
12171;SDS011;6149;52.418;13.668;2023-05-10T03:09:47;7.83;;;5.50;;
12171;SDS011;6149;52.418;13.668;2023-05-10T03:12:18;10.60;;;5.53;;
12171;SDS011;6149;52.418;13.668;2023-05-10T03:14:56;11.80;;;5.60;;
12171;SDS011;6149;52.418;13.668;2023-05-10T03:17:41;6.93;;;5.53;;
12171;SDS011;6149;52.418;13.668;2023-05-10T03:20:20;8.70;;;5.50;;
12171;SDS011;6149;52.418;13.668;2023-05-10T03:22:51;6.97;;;5.27;;
12171;SDS011;6149;52.418;13.668;2023-05-10T03:25:22;6.80;;;5.23;;
12171;SDS011;6149;52.418;13.668;2023-05-10T03:27:51;8.23;;;5.37;;
12171;SDS011;6149;52.418;13.668;2023-05-10T03:30:20;5.93;;;5.13;;
12171;SDS011;6149;52.418;13.668;2023-05-10T03:32:48;7.47;;;5.50;;
12171;SDS011;6149;52.418;13.668;2023-05-10T03:35:17;7.70;;;5.50;;
12171;SDS011;6149;52.418;13.668;2023-05-10T03:37:47;6.83;;;5.40;;
12171;SDS011;6149;52.418;13.668;2023-05-10T03:40:15;7.03;;;5.67;;
12171;SDS011;6149;52.418;13.668;2023-05-10T03:42:42;8.60;;;5.93;;
12171;SDS011;6149;52.418;13.668;2023-05-10T03:45:12;9.60;;;5.40;;
12171;SDS011;6149;52.418;13.668;2023-05-10T03:47:41;7.17;;;5.40;;
12171;SDS011;6149;52.418;13.668;2023-05-10T03:50:09;6.80;;;5.47;;
12171;SDS011;6149;52.418;13.668;2023-05-10T03:52:37;7.83;;;4.70;;
12171;SDS011;6149;52.418;13.668;2023-05-10T03:55:05;6.93;;;5.33;;
12171;SDS011;6149;52.418;13.668;2023-05-10T03:57:32;8.43;;;5.37;;
12171;SDS011;6149;52.418;13.668;2023-05-10T03:59:59;6.20;;;5.60;;
12171;SDS011;6149;52.418;13.668;2023-05-10T04:02:28;8.97;;;5.10;;
12171;SDS011;6149;52.418;13.668;2023-05-10T04:04:55;7.00;;;5.17;;
12171;SDS011;6149;52.418;13.668;2023-05-10T04:07:23;10.00;;;5.67;;
12171;SDS011;6149;52.418;13.668;2023-05-10T04:09:53;7.50;;;5.23;;
12171;SDS011;6149;52.418;13.668;2023-05-10T04:12:20;6.60;;;5.20;;
12171;SDS011;6149;52.418;13.668;2023-05-10T04:14:47;6.77;;;5.60;;
12171;SDS011;6149;52.418;13.668;2023-05-10T04:17:17;7.30;;;5.53;;
12171;SDS011;6149;52.418;13.668;2023-05-10T04:19:44;8.13;;;5.30;;
12171;SDS011;6149;52.418;13.668;2023-05-10T04:22:13;6.70;;;5.03;;
12171;SDS011;6149;52.418;13.668;2023-05-10T04:24:42;6.43;;;5.20;;
12171;SDS011;6149;52.418;13.668;2023-05-10T04:27:11;6.47;;;4.67;;
12171;SDS011;6149;52.418;13.668;2023-05-10T04:29:38;5.73;;;4.77;;
12171;SDS011;6149;52.418;13.668;2023-05-10T04:32:04;6.83;;;4.63;;
12171;SDS011;6149;52.418;13.668;2023-05-10T04:34:31;6.30;;;4.87;;
12171;SDS011;6149;52.418;13.668;2023-05-10T04:36:59;8.37;;;4.90;;
12171;SDS011;6149;52.418;13.668;2023-05-10T04:39:25;5.47;;;4.97;;
12171;SDS011;6149;52.418;13.668;2023-05-10T04:41:53;7.43;;;4.70;;
12171;SDS011;6149;52.418;13.668;2023-05-10T04:44:22;7.17;;;5.17;;
12171;SDS011;6149;52.418;13.668;2023-05-10T04:46:50;5.93;;;4.67;;
12171;SDS011;6149;52.418;13.668;2023-05-10T04:49:18;8.77;;;4.83;;
12171;SDS011;6149;52.418;13.668;2023-05-10T04:51:46;6.37;;;4.60;;
12171;SDS011;6149;52.418;13.668;2023-05-10T04:54:12;6.13;;;4.77;;
12171;SDS011;6149;52.418;13.668;2023-05-10T04:56:40;7.43;;;4.73;;
12171;SDS011;6149;52.418;13.668;2023-05-10T04:59:07;7.37;;;4.17;;
12171;SDS011;6149;52.418;13.668;2023-05-10T05:01:39;7.27;;;4.60;;
12171;SDS011;6149;52.418;13.668;2023-05-10T05:04:06;4.90;;;4.40;;
12171;SDS011;6149;52.418;13.668;2023-05-10T05:06:34;7.40;;;4.53;;
12171;SDS011;6149;52.418;13.668;2023-05-10T05:09:00;5.30;;;4.50;;
12171;SDS011;6149;52.418;13.668;2023-05-10T05:11:27;5.97;;;4.53;;
12171;SDS011;6149;52.418;13.668;2023-05-10T05:13:54;6.70;;;4.70;;
12171;SDS011;6149;52.418;13.668;2023-05-10T05:16:27;6.00;;;4.37;;
12171;SDS011;6149;52.418;13.668;2023-05-10T05:19:00;5.73;;;4.27;;
12171;SDS011;6149;52.418;13.668;2023-05-10T05:21:27;6.93;;;4.53;;
12171;SDS011;6149;52.418;13.668;2023-05-10T05:23:58;5.63;;;3.97;;
12171;SDS011;6149;52.418;13.668;2023-05-10T05:26:24;7.43;;;4.33;;
12171;SDS011;6149;52.418;13.668;2023-05-10T05:28:57;7.40;;;4.40;;
12171;SDS011;6149;52.418;13.668;2023-05-10T05:31:23;5.80;;;4.10;;
12171;SDS011;6149;52.418;13.668;2023-05-10T05:33:51;7.07;;;4.40;;
12171;SDS011;6149;52.418;13.668;2023-05-10T05:36:23;5.53;;;4.23;;
12171;SDS011;6149;52.418;13.668;2023-05-10T05:38:51;4.40;;;3.80;;
12171;SDS011;6149;52.418;13.668;2023-05-10T05:41:19;4.80;;;3.70;;
12171;SDS011;6149;52.418;13.668;2023-05-10T05:43:50;6.23;;;3.73;;
12171;SDS011;6149;52.418;13.668;2023-05-10T05:46:18;7.87;;;3.87;;
12171;SDS011;6149;52.418;13.668;2023-05-10T05:48:45;6.33;;;3.80;;
12171;SDS011;6149;52.418;13.668;2023-05-10T05:51:13;4.93;;;3.67;;
12171;SDS011;6149;52.418;13.668;2023-05-10T05:53:43;5.80;;;3.37;;
12171;SDS011;6149;52.418;13.668;2023-05-10T05:56:12;5.70;;;3.60;;
12171;SDS011;6149;52.418;13.668;2023-05-10T05:58:39;5.03;;;3.20;;
12171;SDS011;6149;52.418;13.668;2023-05-10T06:01:07;5.10;;;3.43;;
12171;SDS011;6149;52.418;13.668;2023-05-10T06:03:36;4.93;;;3.00;;
12171;SDS011;6149;52.418;13.668;2023-05-10T06:06:03;4.07;;;3.00;;
12171;SDS011;6149;52.418;13.668;2023-05-10T06:08:31;3.80;;;3.10;;
12171;SDS011;6149;52.418;13.668;2023-05-10T06:11:00;5.03;;;3.57;;
12171;SDS011;6149;52.418;13.668;2023-05-10T06:13:29;4.30;;;2.90;;
12171;SDS011;6149;52.418;13.668;2023-05-10T06:15:58;3.70;;;3.30;;
12171;SDS011;6149;52.418;13.668;2023-05-10T06:18:26;4.70;;;3.30;;
12171;SDS011;6149;52.418;13.668;2023-05-10T06:20:54;3.87;;;3.00;;
12171;SDS011;6149;52.418;13.668;2023-05-10T06:23:25;5.40;;;3.40;;
12171;SDS011;6149;52.418;13.668;2023-05-10T06:25:54;4.47;;;3.30;;
12171;SDS011;6149;52.418;13.668;2023-05-10T06:28:24;4.90;;;3.17;;
12171;SDS011;6149;52.418;13.668;2023-05-10T06:30:51;3.60;;;2.90;;
12171;SDS011;6149;52.418;13.668;2023-05-10T06:33:19;5.00;;;3.07;;
12171;SDS011;6149;52.418;13.668;2023-05-10T06:35:46;3.33;;;2.93;;
12171;SDS011;6149;52.418;13.668;2023-05-10T06:38:13;4.50;;;3.07;;
12171;SDS011;6149;52.418;13.668;2023-05-10T06:40:42;3.47;;;3.13;;
12171;SDS011;6149;52.418;13.668;2023-05-10T06:43:10;4.77;;;3.10;;
12171;SDS011;6149;52.418;13.668;2023-05-10T06:45:38;6.23;;;3.03;;
12171;SDS011;6149;52.418;13.668;2023-05-10T06:48:05;3.63;;;3.07;;
12171;SDS011;6149;52.418;13.668;2023-05-10T06:50:32;4.77;;;3.20;;
12171;SDS011;6149;52.418;13.668;2023-05-10T06:52:59;4.17;;;2.73;;
12171;SDS011;6149;52.418;13.668;2023-05-10T06:55:26;4.77;;;3.07;;
12171;SDS011;6149;52.418;13.668;2023-05-10T06:57:55;3.73;;;2.90;;
12171;SDS011;6149;52.418;13.668;2023-05-10T07:00:23;6.17;;;2.83;;
12171;SDS011;6149;52.418;13.668;2023-05-10T07:02:52;5.37;;;2.77;;
12171;SDS011;6149;52.418;13.668;2023-05-10T07:05:20;6.00;;;2.97;;
12171;SDS011;6149;52.418;13.668;2023-05-10T07:07:48;3.13;;;2.60;;
12171;SDS011;6149;52.418;13.668;2023-05-10T07:10:16;2.97;;;2.60;;
12171;SDS011;6149;52.418;13.668;2023-05-10T07:12:58;5.20;;;2.90;;
12171;SDS011;6149;52.418;13.668;2023-05-10T07:15:26;6.60;;;2.77;;
12171;SDS011;6149;52.418;13.668;2023-05-10T07:17:56;3.27;;;2.33;;
12171;SDS011;6149;52.418;13.668;2023-05-10T07:20:22;3.40;;;2.87;;
12171;SDS011;6149;52.418;13.668;2023-05-10T07:22:50;3.83;;;2.70;;
12171;SDS011;6149;52.418;13.668;2023-05-10T07:25:18;3.47;;;3.00;;
12171;SDS011;6149;52.418;13.668;2023-05-10T07:27:46;4.23;;;2.93;;
12171;SDS011;6149;52.418;13.668;2023-05-10T07:30:14;4.23;;;2.97;;
12171;SDS011;6149;52.418;13.668;2023-05-10T07:35:47;6.47;;;3.00;;
12171;SDS011;6149;52.418;13.668;2023-05-10T07:38:15;3.27;;;2.50;;
12171;SDS011;6149;52.418;13.668;2023-05-10T07:40:42;3.37;;;2.87;;
12171;SDS011;6149;52.418;13.668;2023-05-10T07:43:12;5.13;;;3.33;;
12171;SDS011;6149;52.418;13.668;2023-05-10T07:45:42;4.43;;;2.53;;
12171;SDS011;6149;52.418;13.668;2023-05-10T07:48:09;5.13;;;2.83;;
12171;SDS011;6149;52.418;13.668;2023-05-10T07:50:38;3.93;;;3.00;;
12171;SDS011;6149;52.418;13.668;2023-05-10T07:53:05;4.60;;;2.77;;
12171;SDS011;6149;52.418;13.668;2023-05-10T07:55:34;3.73;;;3.07;;
12171;SDS011;6149;52.418;13.668;2023-05-10T07:58:01;3.93;;;2.97;;
12171;SDS011;6149;52.418;13.668;2023-05-10T08:00:28;5.90;;;2.90;;
12171;SDS011;6149;52.418;13.668;2023-05-10T08:02:57;5.00;;;3.30;;
12171;SDS011;6149;52.418;13.668;2023-05-10T08:05:25;3.80;;;3.03;;
12171;SDS011;6149;52.418;13.668;2023-05-10T08:07:54;4.80;;;3.33;;
12171;SDS011;6149;52.418;13.668;2023-05-10T08:10:23;4.10;;;2.80;;
12171;SDS011;6149;52.418;13.668;2023-05-10T08:12:52;5.43;;;2.70;;
12171;SDS011;6149;52.418;13.668;2023-05-10T08:15:20;5.63;;;3.17;;
12171;SDS011;6149;52.418;13.668;2023-05-10T08:17:47;4.07;;;2.63;;
12171;SDS011;6149;52.418;13.668;2023-05-10T08:20:16;3.33;;;2.80;;
12171;SDS011;6149;52.418;13.668;2023-05-10T08:22:45;4.90;;;3.20;;
12171;SDS011;6149;52.418;13.668;2023-05-10T08:25:25;3.30;;;2.77;;
12171;SDS011;6149;52.418;13.668;2023-05-10T08:27:54;4.37;;;3.03;;
12171;SDS011;6149;52.418;13.668;2023-05-10T08:30:21;4.73;;;2.93;;
12171;SDS011;6149;52.418;13.668;2023-05-10T08:32:48;5.37;;;2.63;;
12171;SDS011;6149;52.418;13.668;2023-05-10T08:35:16;2.70;;;2.50;;
12171;SDS011;6149;52.418;13.668;2023-05-10T08:37:42;5.17;;;3.03;;
12171;SDS011;6149;52.418;13.668;2023-05-10T08:40:11;4.20;;;2.77;;
12171;SDS011;6149;52.418;13.668;2023-05-10T08:42:49;2.93;;;2.73;;
12171;SDS011;6149;52.418;13.668;2023-05-10T08:45:24;3.03;;;2.60;;
12171;SDS011;6149;52.418;13.668;2023-05-10T08:47:58;5.50;;;2.70;;
12171;SDS011;6149;52.418;13.668;2023-05-10T08:50:27;4.00;;;2.80;;
12171;SDS011;6149;52.418;13.668;2023-05-10T08:52:55;3.67;;;3.07;;
12171;SDS011;6149;52.418;13.668;2023-05-10T08:55:26;4.47;;;2.40;;
12171;SDS011;6149;52.418;13.668;2023-05-10T08:57:56;5.77;;;3.07;;
12171;SDS011;6149;52.418;13.668;2023-05-10T09:00:24;5.87;;;3.10;;
12171;SDS011;6149;52.418;13.668;2023-05-10T09:02:51;4.27;;;2.73;;
12171;SDS011;6149;52.418;13.668;2023-05-10T09:05:20;4.63;;;3.00;;
12171;SDS011;6149;52.418;13.668;2023-05-10T09:07:47;4.67;;;2.80;;
12171;SDS011;6149;52.418;13.668;2023-05-10T09:10:14;6.00;;;3.03;;
12171;SDS011;6149;52.418;13.668;2023-05-10T09:12:42;3.87;;;2.60;;
12171;SDS011;6149;52.418;13.668;2023-05-10T09:15:14;6.23;;;3.00;;
12171;SDS011;6149;52.418;13.668;2023-05-10T09:17:46;3.83;;;2.97;;
12171;SDS011;6149;52.418;13.668;2023-05-10T09:20:15;3.30;;;2.70;;
12171;SDS011;6149;52.418;13.668;2023-05-10T09:22:43;5.50;;;2.97;;
12171;SDS011;6149;52.418;13.668;2023-05-10T09:25:13;3.90;;;2.77;;
12171;SDS011;6149;52.418;13.668;2023-05-10T09:27:47;5.17;;;3.10;;
12171;SDS011;6149;52.418;13.668;2023-05-10T09:30:23;4.10;;;2.70;;
12171;SDS011;6149;52.418;13.668;2023-05-10T09:32:53;4.43;;;2.80;;
12171;SDS011;6149;52.418;13.668;2023-05-10T09:35:21;5.80;;;3.27;;
12171;SDS011;6149;52.418;13.668;2023-05-10T09:37:53;2.50;;;2.30;;
12171;SDS011;6149;52.418;13.668;2023-05-10T09:40:22;4.07;;;3.07;;
12171;SDS011;6149;52.418;13.668;2023-05-10T09:42:52;3.40;;;2.73;;
12171;SDS011;6149;52.418;13.668;2023-05-10T09:45:21;4.50;;;2.80;;
12171;SDS011;6149;52.418;13.668;2023-05-10T09:47:51;3.77;;;2.80;;
12171;SDS011;6149;52.418;13.668;2023-05-10T09:50:20;2.83;;;2.63;;
12171;SDS011;6149;52.418;13.668;2023-05-10T09:52:49;4.13;;;2.80;;
12171;SDS011;6149;52.418;13.668;2023-05-10T09:55:19;3.30;;;2.73;;
12171;SDS011;6149;52.418;13.668;2023-05-10T09:57:59;4.60;;;3.07;;
12171;SDS011;6149;52.418;13.668;2023-05-10T10:00:39;4.03;;;2.70;;
12171;SDS011;6149;52.418;13.668;2023-05-10T10:03:11;2.70;;;2.50;;
12171;SDS011;6149;52.418;13.668;2023-05-10T10:05:43;4.57;;;2.80;;
12171;SDS011;6149;52.418;13.668;2023-05-10T10:08:12;4.93;;;2.93;;
12171;SDS011;6149;52.418;13.668;2023-05-10T10:10:42;3.80;;;2.73;;
12171;SDS011;6149;52.418;13.668;2023-05-10T10:13:11;4.07;;;2.60;;
12171;SDS011;6149;52.418;13.668;2023-05-10T10:15:40;4.93;;;2.60;;
12171;SDS011;6149;52.418;13.668;2023-05-10T10:18:11;4.60;;;3.17;;
12171;SDS011;6149;52.418;13.668;2023-05-10T10:20:41;2.77;;;2.37;;
12171;SDS011;6149;52.418;13.668;2023-05-10T10:23:10;3.67;;;2.73;;
12171;SDS011;6149;52.418;13.668;2023-05-10T10:25:37;4.23;;;2.60;;
12171;SDS011;6149;52.418;13.668;2023-05-10T10:28:10;4.63;;;2.80;;
12171;SDS011;6149;52.418;13.668;2023-05-10T10:30:53;4.27;;;2.87;;
12171;SDS011;6149;52.418;13.668;2023-05-10T10:33:28;4.10;;;2.87;;
12171;SDS011;6149;52.418;13.668;2023-05-10T10:36:06;4.00;;;2.73;;
12171;SDS011;6149;52.418;13.668;2023-05-10T10:41:32;4.93;;;2.63;;
12171;SDS011;6149;52.418;13.668;2023-05-10T10:47:06;4.30;;;3.07;;
12171;SDS011;6149;52.418;13.668;2023-05-10T10:50:02;4.23;;;2.93;;
12171;SDS011;6149;52.418;13.668;2023-05-10T10:52:32;5.77;;;2.80;;
12171;SDS011;6149;52.418;13.668;2023-05-10T10:55:02;4.60;;;3.13;;
12171;SDS011;6149;52.418;13.668;2023-05-10T10:57:32;3.17;;;2.70;;
12171;SDS011;6149;52.418;13.668;2023-05-10T11:00:22;4.23;;;2.63;;
12171;SDS011;6149;52.418;13.668;2023-05-10T11:02:57;3.17;;;2.70;;
12171;SDS011;6149;52.418;13.668;2023-05-10T11:05:26;6.77;;;3.13;;
12171;SDS011;6149;52.418;13.668;2023-05-10T11:08:09;7.40;;;2.60;;
12171;SDS011;6149;52.418;13.668;2023-05-10T11:10:50;7.67;;;3.40;;
12171;SDS011;6149;52.418;13.668;2023-05-10T11:13:46;10.07;;;3.20;;
12171;SDS011;6149;52.418;13.668;2023-05-10T11:16:18;5.63;;;2.50;;
12171;SDS011;6149;52.418;13.668;2023-05-10T11:19:01;7.37;;;3.03;;
12171;SDS011;6149;52.418;13.668;2023-05-10T11:21:31;6.80;;;3.27;;
12171;SDS011;6149;52.418;13.668;2023-05-10T11:24:01;7.20;;;3.20;;
12171;SDS011;6149;52.418;13.668;2023-05-10T11:26:31;7.27;;;3.43;;
12171;SDS011;6149;52.418;13.668;2023-05-10T11:29:00;7.13;;;2.90;;
12171;SDS011;6149;52.418;13.668;2023-05-10T11:31:29;6.90;;;3.00;;
12171;SDS011;6149;52.418;13.668;2023-05-10T11:33:56;10.13;;;3.23;;
12171;SDS011;6149;52.418;13.668;2023-05-10T11:36:26;8.00;;;2.90;;
12171;SDS011;6149;52.418;13.668;2023-05-10T11:38:56;7.10;;;2.93;;
12171;SDS011;6149;52.418;13.668;2023-05-10T11:41:24;6.93;;;2.73;;
12171;SDS011;6149;52.418;13.668;2023-05-10T11:43:54;5.53;;;3.10;;
12171;SDS011;6149;52.418;13.668;2023-05-10T11:46:23;7.07;;;2.67;;
12171;SDS011;6149;52.418;13.668;2023-05-10T11:48:54;4.47;;;2.60;;
12171;SDS011;6149;52.418;13.668;2023-05-10T11:51:28;3.33;;;2.37;;
12171;SDS011;6149;52.418;13.668;2023-05-10T11:53:56;5.87;;;2.70;;
12171;SDS011;6149;52.418;13.668;2023-05-10T11:56:24;6.47;;;2.73;;
12171;SDS011;6149;52.418;13.668;2023-05-10T11:58:52;5.27;;;2.80;;
12171;SDS011;6149;52.418;13.668;2023-05-10T12:01:22;6.67;;;2.70;;
12171;SDS011;6149;52.418;13.668;2023-05-10T12:03:51;4.27;;;2.60;;
12171;SDS011;6149;52.418;13.668;2023-05-10T12:06:25;4.60;;;2.80;;
12171;SDS011;6149;52.418;13.668;2023-05-10T12:08:56;6.00;;;2.53;;
12171;SDS011;6149;52.418;13.668;2023-05-10T12:11:27;5.93;;;2.50;;
12171;SDS011;6149;52.418;13.668;2023-05-10T12:13:55;5.43;;;2.40;;
12171;SDS011;6149;52.418;13.668;2023-05-10T12:16:24;4.20;;;2.67;;
12171;SDS011;6149;52.418;13.668;2023-05-10T12:18:52;3.53;;;2.40;;
12171;SDS011;6149;52.418;13.668;2023-05-10T12:21:22;5.67;;;2.57;;
12171;SDS011;6149;52.418;13.668;2023-05-10T12:23:51;3.43;;;2.50;;
12171;SDS011;6149;52.418;13.668;2023-05-10T12:26:21;3.60;;;2.33;;
12171;SDS011;6149;52.418;13.668;2023-05-10T12:28:49;4.67;;;2.30;;
12171;SDS011;6149;52.418;13.668;2023-05-10T12:31:17;3.77;;;2.10;;
12171;SDS011;6149;52.418;13.668;2023-05-10T12:33:44;8.30;;;2.80;;
12171;SDS011;6149;52.418;13.668;2023-05-10T12:36:16;3.87;;;2.50;;
12171;SDS011;6149;52.418;13.668;2023-05-10T12:39:00;5.93;;;2.37;;
12171;SDS011;6149;52.418;13.668;2023-05-10T12:41:29;6.57;;;2.33;;
12171;SDS011;6149;52.418;13.668;2023-05-10T12:43:56;4.47;;;2.23;;
12171;SDS011;6149;52.418;13.668;2023-05-10T12:46:24;3.00;;;2.33;;
12171;SDS011;6149;52.418;13.668;2023-05-10T12:48:54;7.20;;;2.50;;
12171;SDS011;6149;52.418;13.668;2023-05-10T12:51:22;7.70;;;2.20;;
12171;SDS011;6149;52.418;13.668;2023-05-10T12:53:49;7.07;;;2.43;;
12171;SDS011;6149;52.418;13.668;2023-05-10T12:56:19;6.03;;;2.60;;
12171;SDS011;6149;52.418;13.668;2023-05-10T12:58:47;5.87;;;2.53;;
12171;SDS011;6149;52.418;13.668;2023-05-10T13:01:13;3.87;;;2.37;;
12171;SDS011;6149;52.418;13.668;2023-05-10T13:03:49;4.27;;;2.60;;
12171;SDS011;6149;52.418;13.668;2023-05-10T13:06:17;5.20;;;2.40;;
12171;SDS011;6149;52.418;13.668;2023-05-10T13:08:44;3.50;;;2.20;;
12171;SDS011;6149;52.418;13.668;2023-05-10T13:11:12;3.43;;;2.20;;
12171;SDS011;6149;52.418;13.668;2023-05-10T13:13:50;4.10;;;2.27;;
12171;SDS011;6149;52.418;13.668;2023-05-10T13:16:18;4.50;;;2.20;;
12171;SDS011;6149;52.418;13.668;2023-05-10T13:18:46;4.80;;;2.50;;
12171;SDS011;6149;52.418;13.668;2023-05-10T13:21:13;4.97;;;2.00;;
12171;SDS011;6149;52.418;13.668;2023-05-10T13:23:42;3.00;;;2.00;;
12171;SDS011;6149;52.418;13.668;2023-05-10T13:26:08;3.80;;;2.27;;
12171;SDS011;6149;52.418;13.668;2023-05-10T13:28:36;5.70;;;2.40;;
12171;SDS011;6149;52.418;13.668;2023-05-10T13:31:08;4.43;;;2.10;;
12171;SDS011;6149;52.418;13.668;2023-05-10T13:33:35;4.23;;;2.23;;
12171;SDS011;6149;52.418;13.668;2023-05-10T13:36:04;5.37;;;2.00;;
12171;SDS011;6149;52.418;13.668;2023-05-10T13:38:32;3.30;;;2.20;;
12171;SDS011;6149;52.418;13.668;2023-05-10T13:41:03;2.77;;;2.10;;
12171;SDS011;6149;52.418;13.668;2023-05-10T13:43:30;3.97;;;2.10;;
12171;SDS011;6149;52.418;13.668;2023-05-10T13:45:56;2.00;;;1.83;;
12171;SDS011;6149;52.418;13.668;2023-05-10T13:48:26;3.30;;;2.10;;
12171;SDS011;6149;52.418;13.668;2023-05-10T13:50:53;3.17;;;2.20;;
12171;SDS011;6149;52.418;13.668;2023-05-10T13:53:21;2.77;;;2.20;;
12171;SDS011;6149;52.418;13.668;2023-05-10T13:55:49;4.03;;;2.27;;
12171;SDS011;6149;52.418;13.668;2023-05-10T13:58:16;3.00;;;2.20;;
12171;SDS011;6149;52.418;13.668;2023-05-10T14:00:43;3.57;;;2.30;;
12171;SDS011;6149;52.418;13.668;2023-05-10T14:03:10;3.77;;;2.20;;
12171;SDS011;6149;52.418;13.668;2023-05-10T14:05:40;3.90;;;2.60;;
12171;SDS011;6149;52.418;13.668;2023-05-10T14:08:07;3.70;;;2.30;;
12171;SDS011;6149;52.418;13.668;2023-05-10T14:10:38;3.40;;;2.27;;
12171;SDS011;6149;52.418;13.668;2023-05-10T14:13:05;3.40;;;2.43;;
12171;SDS011;6149;52.418;13.668;2023-05-10T14:15:34;3.53;;;2.13;;
12171;SDS011;6149;52.418;13.668;2023-05-10T14:18:01;2.63;;;2.27;;
12171;SDS011;6149;52.418;13.668;2023-05-10T14:20:28;3.93;;;2.30;;
12171;SDS011;6149;52.418;13.668;2023-05-10T14:22:56;8.97;;;2.63;;
12171;SDS011;6149;52.418;13.668;2023-05-10T14:25:24;2.80;;;2.27;;
12171;SDS011;6149;52.418;13.668;2023-05-10T14:27:50;4.43;;;1.97;;
12171;SDS011;6149;52.418;13.668;2023-05-10T14:30:21;3.60;;;2.30;;
12171;SDS011;6149;52.418;13.668;2023-05-10T14:32:48;4.00;;;2.43;;
12171;SDS011;6149;52.418;13.668;2023-05-10T14:35:18;3.93;;;2.23;;
12171;SDS011;6149;52.418;13.668;2023-05-10T14:37:49;3.43;;;2.40;;
12171;SDS011;6149;52.418;13.668;2023-05-10T14:40:21;3.53;;;2.10;;
12171;SDS011;6149;52.418;13.668;2023-05-10T14:42:49;2.90;;;2.20;;
12171;SDS011;6149;52.418;13.668;2023-05-10T14:45:19;3.27;;;2.27;;
12171;SDS011;6149;52.418;13.668;2023-05-10T14:47:48;3.93;;;2.40;;
12171;SDS011;6149;52.418;13.668;2023-05-10T14:50:15;3.57;;;2.40;;
12171;SDS011;6149;52.418;13.668;2023-05-10T14:52:48;2.20;;;2.00;;
12171;SDS011;6149;52.418;13.668;2023-05-10T14:55:24;3.87;;;2.20;;
12171;SDS011;6149;52.418;13.668;2023-05-10T14:57:51;4.43;;;2.10;;
12171;SDS011;6149;52.418;13.668;2023-05-10T15:00:19;5.07;;;2.43;;
12171;SDS011;6149;52.418;13.668;2023-05-10T15:02:48;3.90;;;2.13;;
12171;SDS011;6149;52.418;13.668;2023-05-10T15:05:16;3.40;;;2.37;;
12171;SDS011;6149;52.418;13.668;2023-05-10T15:07:46;5.57;;;2.30;;
12171;SDS011;6149;52.418;13.668;2023-05-10T15:10:13;3.30;;;1.93;;
12171;SDS011;6149;52.418;13.668;2023-05-10T15:12:43;2.50;;;2.10;;
12171;SDS011;6149;52.418;13.668;2023-05-10T15:15:18;4.90;;;2.27;;
12171;SDS011;6149;52.418;13.668;2023-05-10T15:17:47;3.27;;;1.90;;